OTBD Airport Information

Runway Information
Runway 15 Length 15000 ft width 151 ft
Elevation 35 ft Threshold 2460 ft Heading 158
Runway 33 Length 15000 ft Width 151 ft
Elevation 25 ft Threshold 0 ft Heading 338
Airport Frequencies
Type APP Name APP Frequency 121.1 MHZ
Type ATIS Name ATIS Frequency 126.45 MHZ
Type GND Name GND Frequency 118.275 MHZ
Type OPS Name KINGFISH N Frequency 139.5 MHZ
Type TWR Name TWR Frequency 118.9 MHZ
Airport Navaids
Type VOR-DME Name Doha Frequency 112400 KHZ
Type NDB Name Wk Frequency 323 KHZ
Airport Weather Information & NOTAM
ADDS - METARS form results

(1428 UTC 19 January 2019)
Data provider http://aviationweather.gov/metar/data/
 
METAR text: OTBD 191400Z 32012KT 280V340 9999 FEW040 17/05 Q1019 NOSIG
Conditions at: OTBD (DOHA INTL AIRPOR, QA) observed 1400 UTC 19 January 2019
Temperature: 17.0°C (63°F)
Dewpoint: 5.0°C (41°F) [RH = 45%]
Pressure (altimeter): 30.09 inches Hg (1019.0 mb)
Winds: from the NW (320 degrees) at 14 MPH (12 knots; 6.2 m/s)
Visibility: 6 or more miles (10+ km)
Ceiling: at least 12,000 feet AGL
Clouds: few clouds at 4000 feet AGL
Weather: no significant weather observed at this time

METAR text: OTBD 191330Z 32013KT 9999 FEW040 18/04 Q1019 NOSIG
Conditions at: OTBD (DOHA INTL AIRPOR, QA) observed 1330 UTC 19 January 2019
Temperature: 18.0°C (64°F)
Dewpoint: 4.0°C (39°F) [RH = 39%]
Pressure (altimeter): 30.09 inches Hg (1019.0 mb)
Winds: from the NW (320 degrees) at 15 MPH (13 knots; 6.7 m/s)
Visibility: 6 or more miles (10+ km)
Ceiling: at least 12,000 feet AGL
Clouds: few clouds at 4000 feet AGL
Weather: no significant weather observed at this time

Forecast for: OTBD (DOHA INTL AIRPOR, QA)
Text: TAF OTBD 191047Z 1912/2018 32014KT CAVOK
Forecast period: 1200 UTC 19 January 2019 to 1800 UTC 20 January 2019
Forecast type: FROM: standard forecast or significant change
Winds: from the NW (320 degrees) at 16 MPH (14 knots; 7.2 m/s)
Visibility: 6 or more miles 10+ km)
Ceiling: unknown
Clouds: missing
Weather: NSW  (no significant weather)